createdAt,value
2017-10-26T00:01:09.742Z,14.70
2017-10-26T00:03:36.170Z,14.70
2017-10-26T00:06:02.582Z,14.70
2017-10-26T00:08:28.958Z,14.60
2017-10-26T00:10:55.401Z,14.70
2017-10-26T00:13:22.309Z,14.70
2017-10-26T00:15:48.945Z,14.70
2017-10-26T00:18:15.306Z,14.70
2017-10-26T00:20:41.709Z,14.70
2017-10-26T00:23:08.070Z,14.70
2017-10-26T00:25:34.504Z,14.70
2017-10-26T00:28:00.823Z,14.70
2017-10-26T00:30:27.353Z,14.70
2017-10-26T00:32:53.836Z,14.60
2017-10-26T00:35:20.223Z,14.60
2017-10-26T00:37:46.711Z,14.60
2017-10-26T00:40:13.142Z,14.50
2017-10-26T00:42:39.623Z,14.50
2017-10-26T00:45:07.153Z,14.40
2017-10-26T00:47:33.450Z,14.30
2017-10-26T00:49:59.841Z,14.20
2017-10-26T00:52:26.282Z,14.10
2017-10-26T00:54:52.659Z,14.00
2017-10-26T00:57:19.042Z,13.90
2017-10-26T00:59:45.479Z,13.90
2017-10-26T01:02:12.138Z,13.90
2017-10-26T01:04:38.478Z,13.80
2017-10-26T01:07:05.692Z,13.80
2017-10-26T01:09:32.088Z,13.80
2017-10-26T01:11:58.446Z,13.80
2017-10-26T01:14:24.823Z,13.70
2017-10-26T01:16:52.021Z,13.60
2017-10-26T01:19:18.491Z,13.60
2017-10-26T01:21:44.925Z,13.60
2017-10-26T01:24:11.373Z,13.60
2017-10-26T01:26:38.584Z,13.60
2017-10-26T01:29:04.892Z,13.50
2017-10-26T01:31:31.253Z,13.60
2017-10-26T01:33:57.638Z,13.60
2017-10-26T01:36:24.089Z,13.70
2017-10-26T01:38:50.554Z,13.70
2017-10-26T01:41:16.995Z,13.70
2017-10-26T01:43:43.362Z,13.80
2017-10-26T01:46:09.764Z,13.80
2017-10-26T01:48:36.081Z,13.80
2017-10-26T01:51:02.500Z,13.80
2017-10-26T01:53:28.991Z,13.70
2017-10-26T01:55:56.141Z,13.60
2017-10-26T01:58:23.324Z,13.50
2017-10-26T02:00:49.728Z,13.50
2017-10-26T02:03:16.096Z,13.50
2017-10-26T02:05:42.525Z,13.40
2017-10-26T02:08:08.918Z,13.40
2017-10-26T02:10:35.235Z,13.40
2017-10-26T02:13:01.695Z,13.40
2017-10-26T02:15:28.748Z,13.40
2017-10-26T02:17:55.135Z,13.30
2017-10-26T02:20:21.482Z,13.40
2017-10-26T02:22:47.910Z,13.40
2017-10-26T02:25:14.398Z,13.40
2017-10-26T02:27:40.733Z,13.40
2017-10-26T02:30:25.936Z,13.40
2017-10-26T02:32:52.300Z,13.40
2017-10-26T02:35:18.696Z,13.50
2017-10-26T02:37:45.140Z,13.50
2017-10-26T02:40:11.503Z,13.60
2017-10-26T02:42:38.686Z,13.60
2017-10-26T02:45:05.058Z,13.50
2017-10-26T02:47:31.456Z,13.50
2017-10-26T02:49:57.902Z,13.50
2017-10-26T02:52:24.356Z,13.50
2017-10-26T02:54:50.780Z,13.50
2017-10-26T02:57:17.221Z,13.50
2017-10-26T02:59:43.590Z,13.50
2017-10-26T03:02:11.150Z,13.50
2017-10-26T03:04:38.355Z,13.50
2017-10-26T03:07:04.932Z,13.50
2017-10-26T03:09:31.302Z,13.50
2017-10-26T03:11:57.645Z,13.50
2017-10-26T03:14:24.031Z,13.50
2017-10-26T03:16:51.150Z,13.50
2017-10-26T03:19:17.596Z,13.50
2017-10-26T03:21:43.994Z,13.50
2017-10-26T03:24:10.522Z,13.50
2017-10-26T03:26:36.915Z,13.60
2017-10-26T03:29:03.340Z,13.50
2017-10-26T03:31:29.850Z,13.60
2017-10-26T03:33:56.510Z,13.60
2017-10-26T03:36:23.056Z,13.70
2017-10-26T03:38:50.580Z,13.60
2017-10-26T03:41:17.044Z,13.60
2017-10-26T03:43:43.562Z,13.60
2017-10-26T03:46:10.173Z,13.60
2017-10-26T03:48:36.620Z,13.60
2017-10-26T03:51:03.067Z,13.60
2017-10-26T03:53:29.507Z,13.50
2017-10-26T03:55:55.867Z,13.50
2017-10-26T03:58:22.982Z,13.50
2017-10-26T04:00:49.551Z,13.50
2017-10-26T04:03:16.736Z,13.40
2017-10-26T04:05:43.208Z,13.40
2017-10-26T04:08:09.649Z,13.50
2017-10-26T04:10:36.034Z,13.40
2017-10-26T04:13:02.401Z,13.30
2017-10-26T04:15:28.782Z,13.40
2017-10-26T04:17:55.267Z,13.40
2017-10-26T04:20:22.058Z,13.40
2017-10-26T04:22:48.601Z,13.40
2017-10-26T04:25:15.450Z,13.40
2017-10-26T04:27:41.876Z,13.40
2017-10-26T04:30:08.358Z,13.40
2017-10-26T04:32:34.795Z,13.40
2017-10-26T04:35:01.263Z,13.40
2017-10-26T04:37:28.449Z,13.40
2017-10-26T04:39:55.003Z,13.40
2017-10-26T04:42:21.644Z,13.50
2017-10-26T04:44:47.985Z,13.50
2017-10-26T04:47:14.423Z,13.50
2017-10-26T04:49:40.792Z,13.50
2017-10-26T04:52:07.920Z,13.40
2017-10-26T04:54:34.369Z,13.40
2017-10-26T04:57:08.375Z,13.50
2017-10-26T04:59:35.526Z,13.50
2017-10-26T05:02:02.640Z,13.50
2017-10-26T05:04:28.999Z,13.50
2017-10-26T05:06:55.452Z,13.50
2017-10-26T05:09:22.614Z,13.40
2017-10-26T05:11:49.694Z,13.40
2017-10-26T05:14:16.094Z,13.30
2017-10-26T05:16:42.407Z,13.40
2017-10-26T05:19:09.521Z,13.40
2017-10-26T05:21:36.660Z,13.40
2017-10-26T05:24:03.078Z,13.40
2017-10-26T05:26:29.573Z,13.40
2017-10-26T05:28:55.970Z,13.50
2017-10-26T05:31:22.384Z,13.40
2017-10-26T05:33:48.889Z,13.40
2017-10-26T05:36:15.296Z,13.40
2017-10-26T05:38:41.787Z,13.40
2017-10-26T05:41:08.309Z,13.30
2017-10-26T05:43:34.724Z,13.30
2017-10-26T05:46:01.096Z,13.30
2017-10-26T05:48:27.521Z,13.30
2017-10-26T05:50:53.924Z,13.20
2017-10-26T05:53:20.285Z,13.20
2017-10-26T05:55:46.681Z,13.30
2017-10-26T05:58:13.837Z,13.40
2017-10-26T06:00:40.986Z,13.50
2017-10-26T06:03:07.367Z,13.40
2017-10-26T06:05:33.752Z,13.50
2017-10-26T06:08:00.934Z,13.50
2017-10-26T06:10:27.356Z,13.50
2017-10-26T06:12:53.782Z,13.50
2017-10-26T06:15:20.114Z,13.60
2017-10-26T06:17:46.747Z,13.70
2017-10-26T06:20:13.290Z,13.60
2017-10-26T06:22:39.643Z,13.70
2017-10-26T06:25:06.139Z,13.60
2017-10-26T06:27:32.638Z,13.70
2017-10-26T06:29:59.037Z,13.80
2017-10-26T06:32:25.302Z,13.70
2017-10-26T06:34:51.690Z,13.60
2017-10-26T06:37:18.045Z,13.70
2017-10-26T06:39:44.557Z,13.60
2017-10-26T06:42:11.058Z,13.70
2017-10-26T06:44:37.494Z,13.70
2017-10-26T06:47:03.825Z,13.80
2017-10-26T06:49:30.195Z,13.60
2017-10-26T06:51:56.607Z,13.60
2017-10-26T06:54:23.781Z,13.80
2017-10-26T06:56:50.225Z,13.80
2017-10-26T06:59:16.664Z,13.80
2017-10-26T07:01:43.114Z,13.90
2017-10-26T07:04:09.543Z,13.90
2017-10-26T07:06:35.978Z,14.00
2017-10-26T07:09:02.389Z,14.10
2017-10-26T07:11:28.795Z,14.20
2017-10-26T07:13:55.882Z,14.00
2017-10-26T07:16:22.265Z,14.00
2017-10-26T07:18:48.680Z,14.00
2017-10-26T07:21:15.077Z,14.00
2017-10-26T07:23:41.449Z,14.10
2017-10-26T07:26:08.862Z,14.20
2017-10-26T07:28:35.195Z,14.30
2017-10-26T07:31:01.566Z,14.30
2017-10-26T07:33:27.908Z,14.30
2017-10-26T07:35:55.130Z,14.40
2017-10-26T07:38:21.714Z,14.40
2017-10-26T07:40:48.228Z,14.40
2017-10-26T07:43:15.337Z,14.30
2017-10-26T07:45:48.770Z,14.30
2017-10-26T07:48:15.090Z,14.30
2017-10-26T07:50:41.530Z,14.30
2017-10-26T07:53:07.916Z,14.40
2017-10-26T07:55:34.406Z,14.60
2017-10-26T07:58:01.177Z,14.50
2017-10-26T08:00:27.961Z,14.60
2017-10-26T08:02:54.419Z,14.70
2017-10-26T08:05:21.419Z,14.60
2017-10-26T08:07:48.033Z,14.70
2017-10-26T08:10:15.249Z,15.00
2017-10-26T08:12:41.792Z,15.00
2017-10-26T08:15:08.304Z,15.10
2017-10-26T08:17:34.589Z,15.30
2017-10-26T08:20:01.669Z,15.50
2017-10-26T08:22:28.070Z,15.50
2017-10-26T08:24:55.143Z,15.30
2017-10-26T08:27:21.725Z,15.30
2017-10-26T08:29:48.128Z,15.40
2017-10-26T08:32:14.536Z,15.20
2017-10-26T08:34:40.891Z,15.40
2017-10-26T08:37:07.281Z,15.10
2017-10-26T08:39:34.414Z,15.30
2017-10-26T08:42:00.864Z,15.30
2017-10-26T08:44:28.146Z,15.40
2017-10-26T08:46:54.438Z,15.30
2017-10-26T08:49:20.724Z,15.40
2017-10-26T08:51:47.278Z,15.70
2017-10-26T08:54:13.674Z,15.80
2017-10-26T08:56:40.021Z,16.00
2017-10-26T08:59:06.440Z,16.00
2017-10-26T09:01:32.736Z,16.10
2017-10-26T09:03:59.995Z,16.30
2017-10-26T09:06:27.236Z,16.10
2017-10-26T09:08:54.367Z,15.90
2017-10-26T09:11:21.111Z,15.90
2017-10-26T09:13:47.741Z,15.90
2017-10-26T09:16:14.072Z,15.90
2017-10-26T09:18:40.519Z,16.20
2017-10-26T09:21:07.024Z,16.30
2017-10-26T09:23:33.677Z,16.20
2017-10-26T09:26:00.023Z,16.60
2017-10-26T09:28:26.421Z,16.70
2017-10-26T09:30:52.842Z,16.80
2017-10-26T09:33:25.353Z,17.30
2017-10-26T09:35:51.816Z,17.60
2017-10-26T09:38:18.964Z,16.90
2017-10-26T09:40:45.389Z,16.90
2017-10-26T09:43:11.828Z,16.40
2017-10-26T09:45:38.158Z,16.50
2017-10-26T09:48:04.785Z,16.50
2017-10-26T09:50:31.270Z,16.50
2017-10-26T09:52:57.607Z,16.50
2017-10-26T09:55:24.089Z,16.50
2017-10-26T09:57:50.421Z,16.70
2017-10-26T10:00:16.810Z,16.80
2017-10-26T10:02:43.104Z,16.70
2017-10-26T10:05:10.562Z,16.80
2017-10-26T10:07:37.816Z,17.00
2017-10-26T10:10:04.247Z,17.00
2017-10-26T10:12:31.384Z,16.80
2017-10-26T10:14:57.731Z,16.90
2017-10-26T10:17:24.891Z,17.70
2017-10-26T10:19:51.278Z,17.70
2017-10-26T10:22:17.715Z,18.20
2017-10-26T10:24:44.043Z,18.40
2017-10-26T10:27:10.534Z,17.80
2017-10-26T10:29:36.934Z,17.70
2017-10-26T10:32:03.374Z,17.60
2017-10-26T10:34:30.500Z,17.60
2017-10-26T10:36:57.037Z,17.60
2017-10-26T10:39:23.464Z,17.40
2017-10-26T10:41:49.833Z,17.60
2017-10-26T10:44:16.227Z,17.40
2017-10-26T10:46:42.549Z,17.60
2017-10-26T10:49:08.887Z,17.30
2017-10-26T10:51:35.258Z,17.40
2017-10-26T10:54:02.407Z,17.90
2017-10-26T10:56:29.526Z,17.70
2017-10-26T11:01:52.766Z,17.90
2017-10-26T11:04:19.138Z,17.50
2017-10-26T11:06:45.599Z,17.50
2017-10-26T11:09:12.727Z,17.70
2017-10-26T11:11:39.076Z,17.70
2017-10-26T11:14:06.225Z,17.30
2017-10-26T11:16:33.391Z,17.50
2017-10-26T11:19:00.508Z,17.60
2017-10-26T11:21:26.845Z,17.60
2017-10-26T11:23:53.172Z,17.60
2017-10-26T11:26:19.601Z,17.20
2017-10-26T11:28:46.106Z,17.20
2017-10-26T11:31:12.467Z,17.50
2017-10-26T11:33:38.809Z,17.60
2017-10-26T11:36:05.161Z,17.60
2017-10-26T11:38:32.488Z,18.10
2017-10-26T11:40:58.856Z,18.10
2017-10-26T11:43:25.155Z,18.40
2017-10-26T11:45:51.550Z,18.50
2017-10-26T11:48:17.961Z,18.80
2017-10-26T11:50:44.361Z,19.50
2017-10-26T11:53:10.892Z,19.20
2017-10-26T11:55:37.264Z,20.30
2017-10-26T11:58:04.505Z,21.50
2017-10-26T12:00:31.012Z,21.40
2017-10-26T12:02:57.340Z,22.10
2017-10-26T12:05:23.890Z,23.00
2017-10-26T12:07:50.349Z,23.30
2017-10-26T12:10:17.518Z,21.90
2017-10-26T12:12:43.923Z,21.90
2017-10-26T12:15:11.112Z,20.70
2017-10-26T12:17:37.477Z,20.60
2017-10-26T12:20:03.989Z,20.30
2017-10-26T12:22:30.366Z,20.60
2017-10-26T12:24:57.524Z,19.50
2017-10-26T12:27:23.868Z,19.50
2017-10-26T12:29:50.230Z,20.10
2017-10-26T12:32:16.620Z,19.70
2017-10-26T12:34:42.994Z,19.80
2017-10-26T12:37:09.379Z,19.00
2017-10-26T12:39:36.542Z,18.90
2017-10-26T12:42:03.216Z,18.90
2017-10-26T12:44:29.606Z,18.50
2017-10-26T12:46:56.750Z,18.60
2017-10-26T12:49:24.042Z,19.20
2017-10-26T12:51:50.485Z,19.10
2017-10-26T12:54:16.895Z,19.60
2017-10-26T12:56:43.372Z,19.80
2017-10-26T12:59:09.934Z,19.90
2017-10-26T13:01:36.323Z,19.70
2017-10-26T13:04:02.741Z,19.60
2017-10-26T13:06:29.081Z,19.40
2017-10-26T13:08:55.458Z,18.80
2017-10-26T13:11:21.877Z,18.30
2017-10-26T13:13:49.709Z,17.90
2017-10-26T13:16:16.102Z,17.90
2017-10-26T13:18:43.545Z,18.00
2017-10-26T13:21:09.924Z,18.00
2017-10-26T13:23:36.502Z,17.70
2017-10-26T13:26:02.852Z,17.70
2017-10-26T13:28:29.285Z,17.60
2017-10-26T13:30:55.700Z,17.60
2017-10-26T13:33:22.144Z,17.60
2017-10-26T13:35:49.269Z,17.90
2017-10-26T13:38:15.664Z,17.90
2017-10-26T13:40:42.225Z,18.00
2017-10-26T13:43:08.669Z,18.10
2017-10-26T13:45:35.072Z,17.80
2017-10-26T13:48:01.511Z,17.50
2017-10-26T13:50:27.920Z,17.30
2017-10-26T13:52:55.033Z,17.60
2017-10-26T13:55:21.472Z,17.60
2017-10-26T13:57:47.852Z,17.50
2017-10-26T14:00:14.287Z,17.60
2017-10-26T14:02:40.868Z,17.80
2017-10-26T14:05:07.300Z,17.70
2017-10-26T14:07:33.734Z,17.70
2017-10-26T14:10:00.221Z,17.90
2017-10-26T14:12:26.604Z,17.80
2017-10-26T14:14:52.983Z,17.90
2017-10-26T14:17:19.358Z,17.90
2017-10-26T14:19:45.758Z,18.00
2017-10-26T14:22:12.301Z,17.90
2017-10-26T14:24:38.787Z,17.70
2017-10-26T14:27:05.258Z,17.50
2017-10-26T14:29:31.703Z,17.40
2017-10-26T14:31:58.096Z,17.50
2017-10-26T14:34:24.549Z,17.10
2017-10-26T14:36:51.003Z,17.10
2017-10-26T14:39:17.397Z,17.10
2017-10-26T14:41:43.782Z,16.90
2017-10-26T14:44:10.337Z,17.00
2017-10-26T14:46:36.750Z,16.80
2017-10-26T14:49:03.175Z,16.70
2017-10-26T14:51:30.016Z,16.50
2017-10-26T14:53:56.838Z,16.30
2017-10-26T14:56:23.492Z,16.40
2017-10-26T14:58:50.158Z,16.50
2017-10-26T15:01:17.009Z,16.30
2017-10-26T15:03:43.598Z,16.10
2017-10-26T15:06:11.212Z,16.00
2017-10-26T15:08:38.552Z,15.90
2017-10-26T15:11:04.995Z,15.90
2017-10-26T15:13:31.635Z,15.90
2017-10-26T15:15:58.334Z,15.90
2017-10-26T15:18:25.013Z,15.80
2017-10-26T15:20:51.571Z,15.80
2017-10-26T15:23:18.799Z,15.70
2017-10-26T15:25:45.191Z,15.70
2017-10-26T15:28:12.411Z,15.60
2017-10-26T15:30:39.753Z,15.60
2017-10-26T15:33:06.220Z,15.60
2017-10-26T15:35:33.538Z,15.40
2017-10-26T15:37:59.879Z,15.40
2017-10-26T15:40:27.095Z,15.10
2017-10-26T15:42:53.538Z,15.10
2017-10-26T15:45:20.211Z,15.00
2017-10-26T15:47:46.752Z,14.90
2017-10-26T15:50:13.293Z,14.80
2017-10-26T15:52:40.496Z,14.70
2017-10-26T15:55:07.148Z,14.70
2017-10-26T15:57:33.658Z,14.60
2017-10-26T16:00:00.117Z,14.50
2017-10-26T16:02:26.551Z,14.40
2017-10-26T16:04:52.957Z,14.40
2017-10-26T16:07:19.390Z,14.20
2017-10-26T16:09:45.923Z,14.20
2017-10-26T16:12:12.441Z,14.00
2017-10-26T16:14:38.876Z,13.90
2017-10-26T16:17:05.971Z,13.80
2017-10-26T16:19:33.480Z,13.80
2017-10-26T16:21:59.924Z,13.70
2017-10-26T16:24:26.384Z,13.70
2017-10-26T16:26:52.871Z,13.60
2017-10-26T16:29:20.157Z,13.60
2017-10-26T16:31:46.818Z,13.60
2017-10-26T16:34:13.169Z,13.60
2017-10-26T16:36:39.634Z,13.60
2017-10-26T16:39:06.716Z,13.60
2017-10-26T16:41:33.076Z,13.60
2017-10-26T16:43:59.448Z,13.60
2017-10-26T16:46:26.600Z,13.60
2017-10-26T16:48:53.789Z,13.60
2017-10-26T16:51:20.187Z,13.50
2017-10-26T16:53:48.246Z,13.60
2017-10-26T16:56:14.929Z,13.60
2017-10-26T16:58:41.456Z,13.60
2017-10-26T17:01:07.913Z,13.60
2017-10-26T17:03:34.341Z,13.60
2017-10-26T17:06:00.723Z,13.60
2017-10-26T17:08:27.091Z,13.60
2017-10-26T17:10:53.539Z,13.60
2017-10-26T17:13:19.917Z,13.60
2017-10-26T17:15:46.377Z,13.60
2017-10-26T17:18:12.894Z,13.50
2017-10-26T17:20:40.174Z,13.50
2017-10-26T17:23:06.544Z,13.50
2017-10-26T17:25:33.075Z,13.60
2017-10-26T17:27:59.514Z,13.60
2017-10-26T17:30:25.864Z,13.60
2017-10-26T17:32:52.430Z,13.70
2017-10-26T17:35:19.581Z,13.70
2017-10-26T17:37:46.812Z,13.60
2017-10-26T17:40:13.177Z,13.60
2017-10-26T17:42:39.722Z,13.60
2017-10-26T17:45:06.274Z,13.60
2017-10-26T17:47:32.751Z,13.70
2017-10-26T17:49:59.151Z,13.70
2017-10-26T17:52:25.551Z,13.60
2017-10-26T17:54:52.054Z,13.70
2017-10-26T17:57:20.392Z,13.70
2017-10-26T17:59:47.057Z,13.70
2017-10-26T18:02:13.567Z,13.70
2017-10-26T18:04:39.981Z,13.70
2017-10-26T18:07:06.404Z,13.70
2017-10-26T18:09:33.690Z,13.60
2017-10-26T18:12:00.018Z,13.60
2017-10-26T18:14:26.499Z,13.60
2017-10-26T18:16:53.660Z,13.60
2017-10-26T18:19:20.739Z,13.50
2017-10-26T18:21:47.194Z,13.50
2017-10-26T18:24:13.588Z,13.50
2017-10-26T18:26:39.951Z,13.50
2017-10-26T18:29:06.399Z,13.50
2017-10-26T18:31:33.957Z,13.60
2017-10-26T18:34:00.329Z,13.60
2017-10-26T18:36:27.551Z,13.60
2017-10-26T18:38:54.026Z,13.60
2017-10-26T18:41:20.398Z,13.60
2017-10-26T18:43:46.867Z,13.60
2017-10-26T18:46:13.261Z,13.60
2017-10-26T18:48:39.685Z,13.70
2017-10-26T18:51:06.060Z,13.60
2017-10-26T18:53:32.539Z,13.60
2017-10-26T18:56:00.088Z,13.60
2017-10-26T18:58:26.617Z,13.60
2017-10-26T19:00:55.912Z,13.70
2017-10-26T19:03:23.014Z,13.60
2017-10-26T19:05:49.444Z,13.60
2017-10-26T19:08:15.841Z,13.60
2017-10-26T19:10:42.208Z,13.60
2017-10-26T19:13:08.804Z,13.60
2017-10-26T19:15:36.087Z,13.70
2017-10-26T19:18:02.528Z,13.60
2017-10-26T19:20:28.939Z,13.70
2017-10-26T19:22:56.253Z,13.70
2017-10-26T19:25:22.859Z,13.70
2017-10-26T19:27:49.905Z,13.70
2017-10-26T19:30:16.254Z,13.80
2017-10-26T19:32:42.690Z,13.70
2017-10-26T19:35:09.196Z,13.70
2017-10-26T19:37:35.684Z,13.70
2017-10-26T19:40:02.828Z,13.80
2017-10-26T19:42:29.221Z,13.80
2017-10-26T19:44:55.579Z,13.80
2017-10-26T19:47:22.027Z,13.70
2017-10-26T19:49:48.455Z,13.70
2017-10-26T19:52:14.940Z,13.80
2017-10-26T19:54:42.447Z,13.70
2017-10-26T19:57:08.836Z,13.80
2017-10-26T19:59:35.630Z,13.80
2017-10-26T20:02:01.978Z,13.70
2017-10-26T20:04:28.313Z,13.80
2017-10-26T20:06:55.477Z,13.80
2017-10-26T20:09:22.487Z,13.80
2017-10-26T20:11:48.837Z,13.80
2017-10-26T20:14:15.256Z,13.70
2017-10-26T20:16:41.627Z,13.80
2017-10-26T20:19:08.227Z,13.80
2017-10-26T20:21:34.649Z,13.80
2017-10-26T20:24:01.128Z,13.80
2017-10-26T20:26:27.511Z,13.90
2017-10-26T20:28:53.954Z,13.90
2017-10-26T20:31:20.342Z,13.90
2017-10-26T20:33:46.900Z,13.90
2017-10-26T20:36:14.282Z,14.00
2017-10-26T20:38:41.604Z,14.00
2017-10-26T20:41:08.518Z,14.00
2017-10-26T20:43:35.156Z,14.00
2017-10-26T20:46:01.603Z,14.00
2017-10-26T20:48:28.099Z,14.00
2017-10-26T20:51:01.397Z,13.90
2017-10-26T20:53:35.578Z,14.00
2017-10-26T20:56:08.250Z,13.90
2017-10-26T20:58:40.759Z,13.90
2017-10-26T21:01:13.681Z,13.90
2017-10-26T21:03:46.379Z,13.90
2017-10-26T21:06:15.773Z,13.90
2017-10-26T21:08:48.470Z,13.90
2017-10-26T21:14:27.794Z,13.90
2017-10-26T21:16:54.123Z,13.90
2017-10-26T21:19:20.466Z,13.90
2017-10-26T21:21:46.871Z,13.90
2017-10-26T21:24:14.078Z,13.80
2017-10-26T21:26:40.526Z,13.80
2017-10-26T21:29:06.922Z,13.80
2017-10-26T21:31:33.310Z,13.90
2017-10-26T21:33:59.925Z,13.80
2017-10-26T21:36:26.963Z,13.90
2017-10-26T21:38:53.394Z,13.80
2017-10-26T21:41:19.937Z,13.80
2017-10-26T21:43:46.440Z,13.80
2017-10-26T21:46:13.240Z,13.80
2017-10-26T21:48:39.671Z,13.80
2017-10-26T21:51:06.359Z,13.70
2017-10-26T21:53:33.091Z,13.70
2017-10-26T21:55:59.481Z,13.70
2017-10-26T21:58:25.926Z,13.60
2017-10-26T22:00:52.475Z,13.50
2017-10-26T22:03:18.990Z,13.50
2017-10-26T22:05:45.398Z,13.50
2017-10-26T22:08:11.762Z,13.50
2017-10-26T22:13:11.751Z,13.40
2017-10-26T22:15:38.119Z,13.40
2017-10-26T22:18:04.431Z,13.40
2017-10-26T22:20:30.784Z,13.40
2017-10-26T22:22:57.173Z,13.40
2017-10-26T22:25:23.527Z,13.40
2017-10-26T22:27:49.960Z,13.30
2017-10-26T22:30:16.554Z,13.40
2017-10-26T22:32:42.991Z,13.30
2017-10-26T22:35:09.484Z,13.40
2017-10-26T22:37:35.926Z,13.40
2017-10-26T22:40:02.412Z,13.40
2017-10-26T22:42:29.082Z,13.40
2017-10-26T22:44:55.623Z,13.40
2017-10-26T22:47:22.024Z,13.40
2017-10-26T22:49:48.752Z,13.40
2017-10-26T22:52:15.336Z,13.50
2017-10-26T22:54:41.900Z,13.50
2017-10-26T22:57:08.243Z,13.50
2017-10-26T22:59:35.701Z,13.50
2017-10-26T23:02:02.251Z,13.40
2017-10-26T23:04:28.618Z,13.50
2017-10-26T23:06:55.022Z,13.50
2017-10-26T23:09:21.449Z,13.50
2017-10-26T23:11:47.887Z,13.50
2017-10-26T23:14:14.353Z,13.50
2017-10-26T23:16:40.762Z,13.50
2017-10-26T23:19:07.371Z,13.50
2017-10-26T23:21:33.959Z,13.40
2017-10-26T23:24:00.454Z,13.40
2017-10-26T23:26:26.853Z,13.40
2017-10-26T23:28:53.232Z,13.40
2017-10-26T23:31:19.587Z,13.40
2017-10-26T23:33:46.046Z,13.40
2017-10-26T23:36:12.386Z,13.40
2017-10-26T23:38:38.819Z,13.40
2017-10-26T23:41:06.247Z,13.40
2017-10-26T23:43:32.946Z,13.40
2017-10-26T23:45:59.783Z,13.40
2017-10-26T23:48:26.960Z,13.40
2017-10-26T23:50:53.406Z,13.40
2017-10-26T23:53:19.812Z,13.40
2017-10-26T23:55:46.148Z,13.40
2017-10-26T23:58:12.482Z,13.30
